Irondequoit, New York
Current Conditions -  °F | °C
As of 5:15 PM on Saturday 25 Oct 2014 (Local Time) from KROC Reporting Station
Broken Clouds Broken Clouds  
Wind Chill: 61°   Ceiling: 7000
Heat Index: 61°   Visibility: 8mi
Dew Point: 50°   Wind: 15mph
Humidity: 67%   Direction: 280°W
Pressure: 29.59"   Gusts: 31mph
Location:  43.21°N, 77.58°W
Report Text: KROC 252115Z 28013G27KT 8SM SCT025 SCT033 BKN070 16/10 A2959 RMK AO2 PK WND 29027/2107 T01610100
Loading
Personal Weather Stations






























Interactive Weather Map
Tropical Storm Tracking
New forecast layout! Learn more

10-Day Weather Forecast

Advertisements
Track Severe Weather on mobile